sensor_id;sensor_type;location;lat;lon;timestamp;P1;durP1;ratioP1;P2;durP2;ratioP2
65533;SDS011;53640;55.838;37.184;2023-11-19T00:00:07;55.38;;;23.48;;
65533;SDS011;53640;55.838;37.184;2023-11-19T00:02:38;56.10;;;23.13;;
65533;SDS011;53640;55.838;37.184;2023-11-19T00:05:05;48.40;;;21.05;;
65533;SDS011;53640;55.838;37.184;2023-11-19T00:07:35;41.38;;;19.33;;
65533;SDS011;53640;55.838;37.184;2023-11-19T00:10:02;49.78;;;20.40;;
65533;SDS011;53640;55.838;37.184;2023-11-19T00:12:32;52.25;;;19.35;;
65533;SDS011;53640;55.838;37.184;2023-11-19T00:14:59;39.63;;;18.05;;
65533;SDS011;53640;55.838;37.184;2023-11-19T00:17:26;29.90;;;15.50;;
65533;SDS011;53640;55.838;37.184;2023-11-19T00:19:53;35.83;;;16.98;;
65533;SDS011;53640;55.838;37.184;2023-11-19T00:22:19;38.95;;;17.65;;
65533;SDS011;53640;55.838;37.184;2023-11-19T00:24:47;39.25;;;18.40;;
65533;SDS011;53640;55.838;37.184;2023-11-19T00:27:14;39.53;;;17.23;;
65533;SDS011;53640;55.838;37.184;2023-11-19T00:29:43;35.08;;;15.40;;
65533;SDS011;53640;55.838;37.184;2023-11-19T00:32:12;40.25;;;15.73;;
65533;SDS011;53640;55.838;37.184;2023-11-19T00:34:39;34.22;;;14.80;;
65533;SDS011;53640;55.838;37.184;2023-11-19T00:37:05;31.52;;;14.70;;
65533;SDS011;53640;55.838;37.184;2023-11-19T00:39:32;33.05;;;14.15;;
65533;SDS011;53640;55.838;37.184;2023-11-19T00:41:59;35.33;;;15.38;;
65533;SDS011;53640;55.838;37.184;2023-11-19T00:44:25;36.72;;;15.90;;
65533;SDS011;53640;55.838;37.184;2023-11-19T00:46:52;38.80;;;16.15;;
65533;SDS011;53640;55.838;37.184;2023-11-19T00:49:20;36.42;;;15.48;;
65533;SDS011;53640;55.838;37.184;2023-11-19T00:51:47;36.13;;;15.32;;
65533;SDS011;53640;55.838;37.184;2023-11-19T00:54:15;35.90;;;14.48;;
65533;SDS011;53640;55.838;37.184;2023-11-19T00:56:41;34.20;;;13.63;;
65533;SDS011;53640;55.838;37.184;2023-11-19T00:59:08;33.38;;;13.73;;
65533;SDS011;53640;55.838;37.184;2023-11-19T01:01:34;32.92;;;13.23;;
65533;SDS011;53640;55.838;37.184;2023-11-19T01:04:01;29.05;;;13.65;;
65533;SDS011;53640;55.838;37.184;2023-11-19T01:06:31;32.78;;;12.75;;
65533;SDS011;53640;55.838;37.184;2023-11-19T01:08:58;33.30;;;13.50;;
65533;SDS011;53640;55.838;37.184;2023-11-19T01:11:25;32.47;;;12.63;;
65533;SDS011;53640;55.838;37.184;2023-11-19T01:13:52;31.17;;;13.90;;
65533;SDS011;53640;55.838;37.184;2023-11-19T01:16:20;29.17;;;12.25;;
65533;SDS011;53640;55.838;37.184;2023-11-19T01:18:47;32.53;;;13.75;;
65533;SDS011;53640;55.838;37.184;2023-11-19T01:21:15;34.67;;;13.35;;
65533;SDS011;53640;55.838;37.184;2023-11-19T01:23:42;28.65;;;13.50;;
65533;SDS011;53640;55.838;37.184;2023-11-19T01:26:09;39.50;;;16.58;;
65533;SDS011;53640;55.838;37.184;2023-11-19T01:28:37;38.75;;;16.40;;
65533;SDS011;53640;55.838;37.184;2023-11-19T01:31:05;38.90;;;16.20;;
65533;SDS011;53640;55.838;37.184;2023-11-19T01:33:38;48.03;;;17.67;;
65533;SDS011;53640;55.838;37.184;2023-11-19T01:36:06;37.23;;;16.97;;
65533;SDS011;53640;55.838;37.184;2023-11-19T01:38:34;39.10;;;16.05;;
65533;SDS011;53640;55.838;37.184;2023-11-19T01:41:02;40.35;;;16.45;;
65533;SDS011;53640;55.838;37.184;2023-11-19T01:43:39;40.30;;;16.15;;
65533;SDS011;53640;55.838;37.184;2023-11-19T01:46:08;35.90;;;16.00;;
65533;SDS011;53640;55.838;37.184;2023-11-19T01:48:42;42.42;;;16.85;;
65533;SDS011;53640;55.838;37.184;2023-11-19T01:51:14;40.35;;;16.70;;
65533;SDS011;53640;55.838;37.184;2023-11-19T01:56:11;49.22;;;15.60;;
65533;SDS011;53640;55.838;37.184;2023-11-19T01:58:40;46.75;;;18.05;;
65533;SDS011;53640;55.838;37.184;2023-11-19T02:01:11;38.25;;;16.67;;
65533;SDS011;53640;55.838;37.184;2023-11-19T02:03:39;42.78;;;19.02;;
65533;SDS011;53640;55.838;37.184;2023-11-19T02:06:07;46.13;;;19.95;;
65533;SDS011;53640;55.838;37.184;2023-11-19T02:08:36;46.33;;;19.05;;
65533;SDS011;53640;55.838;37.184;2023-11-19T02:11:04;47.65;;;17.85;;
65533;SDS011;53640;55.838;37.184;2023-11-19T02:13:33;46.78;;;18.83;;
65533;SDS011;53640;55.838;37.184;2023-11-19T02:16:04;47.88;;;20.48;;
65533;SDS011;53640;55.838;37.184;2023-11-19T02:18:33;45.40;;;20.67;;
65533;SDS011;53640;55.838;37.184;2023-11-19T02:21:01;45.42;;;20.60;;
65533;SDS011;53640;55.838;37.184;2023-11-19T02:23:28;47.63;;;20.83;;
65533;SDS011;53640;55.838;37.184;2023-11-19T02:26:01;48.15;;;20.50;;
65533;SDS011;53640;55.838;37.184;2023-11-19T02:28:36;40.75;;;19.35;;
65533;SDS011;53640;55.838;37.184;2023-11-19T02:31:03;48.55;;;20.25;;
65533;SDS011;53640;55.838;37.184;2023-11-19T02:33:36;41.38;;;18.65;;
65533;SDS011;53640;55.838;37.184;2023-11-19T02:36:04;51.78;;;20.88;;
65533;SDS011;53640;55.838;37.184;2023-11-19T02:38:33;43.78;;;20.00;;
65533;SDS011;53640;55.838;37.184;2023-11-19T02:41:02;42.50;;;19.95;;
65533;SDS011;53640;55.838;37.184;2023-11-19T02:43:35;56.28;;;20.48;;
65533;SDS011;53640;55.838;37.184;2023-11-19T02:46:04;49.38;;;21.38;;
65533;SDS011;53640;55.838;37.184;2023-11-19T02:48:35;44.17;;;19.48;;
65533;SDS011;53640;55.838;37.184;2023-11-19T02:51:04;54.65;;;20.05;;
65533;SDS011;53640;55.838;37.184;2023-11-19T02:53:35;51.20;;;20.35;;
65533;SDS011;53640;55.838;37.184;2023-11-19T02:56:03;47.20;;;20.17;;
65533;SDS011;53640;55.838;37.184;2023-11-19T02:58:51;51.10;;;18.67;;
65533;SDS011;53640;55.838;37.184;2023-11-19T03:01:21;48.85;;;20.38;;
65533;SDS011;53640;55.838;37.184;2023-11-19T03:03:59;62.78;;;22.20;;
65533;SDS011;53640;55.838;37.184;2023-11-19T03:06:28;47.20;;;18.92;;
65533;SDS011;53640;55.838;37.184;2023-11-19T03:08:55;50.25;;;19.92;;
65533;SDS011;53640;55.838;37.184;2023-11-19T03:11:22;53.25;;;19.70;;
65533;SDS011;53640;55.838;37.184;2023-11-19T03:13:48;50.40;;;20.05;;
65533;SDS011;53640;55.838;37.184;2023-11-19T03:16:15;40.53;;;19.50;;
65533;SDS011;53640;55.838;37.184;2023-11-19T03:18:42;47.28;;;20.70;;
65533;SDS011;53640;55.838;37.184;2023-11-19T03:21:09;57.78;;;23.83;;
65533;SDS011;53640;55.838;37.184;2023-11-19T03:23:35;54.28;;;22.63;;
65533;SDS011;53640;55.838;37.184;2023-11-19T03:26:03;52.13;;;23.38;;
65533;SDS011;53640;55.838;37.184;2023-11-19T03:28:31;46.25;;;20.38;;
65533;SDS011;53640;55.838;37.184;2023-11-19T03:30:58;45.80;;;19.55;;
65533;SDS011;53640;55.838;37.184;2023-11-19T03:33:25;51.70;;;22.35;;
65533;SDS011;53640;55.838;37.184;2023-11-19T03:35:54;33.60;;;15.57;;
65533;SDS011;53640;55.838;37.184;2023-11-19T03:38:23;40.72;;;17.55;;
65533;SDS011;53640;55.838;37.184;2023-11-19T03:40:50;34.50;;;16.23;;
65533;SDS011;53640;55.838;37.184;2023-11-19T03:43:17;36.25;;;16.38;;
65533;SDS011;53640;55.838;37.184;2023-11-19T03:45:45;39.85;;;16.25;;
65533;SDS011;53640;55.838;37.184;2023-11-19T03:48:13;36.40;;;15.43;;
65533;SDS011;53640;55.838;37.184;2023-11-19T03:50:42;37.30;;;15.13;;
65533;SDS011;53640;55.838;37.184;2023-11-19T03:53:09;37.50;;;14.27;;
65533;SDS011;53640;55.838;37.184;2023-11-19T03:55:35;43.17;;;17.70;;
65533;SDS011;53640;55.838;37.184;2023-11-19T03:58:02;47.85;;;18.27;;
65533;SDS011;53640;55.838;37.184;2023-11-19T04:00:28;38.47;;;15.77;;
65533;SDS011;53640;55.838;37.184;2023-11-19T04:02:54;39.80;;;16.30;;
65533;SDS011;53640;55.838;37.184;2023-11-19T04:05:21;29.67;;;14.25;;
65533;SDS011;53640;55.838;37.184;2023-11-19T04:07:47;34.42;;;14.77;;
65533;SDS011;53640;55.838;37.184;2023-11-19T04:10:14;40.15;;;16.65;;
65533;SDS011;53640;55.838;37.184;2023-11-19T04:12:43;33.22;;;14.38;;
65533;SDS011;53640;55.838;37.184;2023-11-19T04:15:10;31.02;;;14.38;;
65533;SDS011;53640;55.838;37.184;2023-11-19T04:17:37;23.08;;;10.20;;
65533;SDS011;53640;55.838;37.184;2023-11-19T04:20:04;30.17;;;12.23;;
65533;SDS011;53640;55.838;37.184;2023-11-19T04:22:31;34.13;;;12.75;;
65533;SDS011;53640;55.838;37.184;2023-11-19T04:24:58;22.30;;;11.05;;
65533;SDS011;53640;55.838;37.184;2023-11-19T04:27:24;22.73;;;10.15;;
65533;SDS011;53640;55.838;37.184;2023-11-19T04:29:51;33.17;;;11.13;;
65533;SDS011;53640;55.838;37.184;2023-11-19T04:32:17;27.17;;;12.77;;
65533;SDS011;53640;55.838;37.184;2023-11-19T04:34:45;37.28;;;15.15;;
65533;SDS011;53640;55.838;37.184;2023-11-19T04:37:12;39.70;;;15.00;;
65533;SDS011;53640;55.838;37.184;2023-11-19T04:39:39;36.95;;;15.38;;
65533;SDS011;53640;55.838;37.184;2023-11-19T04:42:06;30.83;;;14.35;;
65533;SDS011;53640;55.838;37.184;2023-11-19T04:44:33;32.78;;;15.90;;
65533;SDS011;53640;55.838;37.184;2023-11-19T04:46:59;30.70;;;12.48;;
65533;SDS011;53640;55.838;37.184;2023-11-19T04:49:26;23.55;;;11.10;;
65533;SDS011;53640;55.838;37.184;2023-11-19T04:51:53;22.45;;;10.88;;
65533;SDS011;53640;55.838;37.184;2023-11-19T04:54:19;29.83;;;14.35;;
65533;SDS011;53640;55.838;37.184;2023-11-19T04:56:46;33.25;;;14.05;;
65533;SDS011;53640;55.838;37.184;2023-11-19T04:59:14;39.95;;;17.55;;
65533;SDS011;53640;55.838;37.184;2023-11-19T05:01:41;36.78;;;17.25;;
65533;SDS011;53640;55.838;37.184;2023-11-19T05:04:07;32.42;;;13.27;;
65533;SDS011;53640;55.838;37.184;2023-11-19T05:06:34;22.52;;;10.57;;
65533;SDS011;53640;55.838;37.184;2023-11-19T05:09:01;22.80;;;9.95;;
65533;SDS011;53640;55.838;37.184;2023-11-19T05:11:29;21.77;;;9.57;;
65533;SDS011;53640;55.838;37.184;2023-11-19T05:13:58;17.85;;;8.68;;
65533;SDS011;53640;55.838;37.184;2023-11-19T05:16:24;21.30;;;9.57;;
65533;SDS011;53640;55.838;37.184;2023-11-19T05:18:51;18.40;;;8.35;;
65533;SDS011;53640;55.838;37.184;2023-11-19T05:21:18;18.55;;;8.50;;
65533;SDS011;53640;55.838;37.184;2023-11-19T05:23:44;20.77;;;9.02;;
65533;SDS011;53640;55.838;37.184;2023-11-19T05:26:19;25.83;;;11.23;;
65533;SDS011;53640;55.838;37.184;2023-11-19T05:28:48;25.83;;;12.65;;
65533;SDS011;53640;55.838;37.184;2023-11-19T05:31:16;32.33;;;13.30;;
65533;SDS011;53640;55.838;37.184;2023-11-19T05:33:44;29.08;;;11.63;;
65533;SDS011;53640;55.838;37.184;2023-11-19T05:36:10;20.52;;;9.45;;
65533;SDS011;53640;55.838;37.184;2023-11-19T05:38:38;16.08;;;8.63;;
65533;SDS011;53640;55.838;37.184;2023-11-19T05:41:06;30.63;;;12.48;;
65533;SDS011;53640;55.838;37.184;2023-11-19T05:43:33;26.10;;;11.95;;
65533;SDS011;53640;55.838;37.184;2023-11-19T05:46:00;30.85;;;14.82;;
65533;SDS011;53640;55.838;37.184;2023-11-19T05:48:32;31.23;;;14.30;;
65533;SDS011;53640;55.838;37.184;2023-11-19T05:51:03;34.17;;;16.23;;
65533;SDS011;53640;55.838;37.184;2023-11-19T05:53:32;31.42;;;13.63;;
65533;SDS011;53640;55.838;37.184;2023-11-19T05:55:59;37.83;;;15.27;;
65533;SDS011;53640;55.838;37.184;2023-11-19T05:58:30;32.63;;;16.35;;
65533;SDS011;53640;55.838;37.184;2023-11-19T06:00:56;32.28;;;14.88;;
65533;SDS011;53640;55.838;37.184;2023-11-19T06:03:23;36.72;;;16.90;;
65533;SDS011;53640;55.838;37.184;2023-11-19T06:05:50;28.23;;;13.10;;
65533;SDS011;53640;55.838;37.184;2023-11-19T06:08:17;29.38;;;12.95;;
65533;SDS011;53640;55.838;37.184;2023-11-19T06:10:44;32.03;;;13.60;;
65533;SDS011;53640;55.838;37.184;2023-11-19T06:13:14;32.22;;;14.95;;
65533;SDS011;53640;55.838;37.184;2023-11-19T06:15:42;34.75;;;16.00;;
65533;SDS011;53640;55.838;37.184;2023-11-19T06:18:10;34.03;;;15.30;;
65533;SDS011;53640;55.838;37.184;2023-11-19T06:20:38;30.52;;;14.18;;
65533;SDS011;53640;55.838;37.184;2023-11-19T06:23:05;36.88;;;14.65;;
65533;SDS011;53640;55.838;37.184;2023-11-19T06:25:38;30.90;;;14.18;;
65533;SDS011;53640;55.838;37.184;2023-11-19T06:28:04;27.90;;;12.77;;
65533;SDS011;53640;55.838;37.184;2023-11-19T06:30:31;31.73;;;14.38;;
65533;SDS011;53640;55.838;37.184;2023-11-19T06:32:58;30.25;;;13.13;;
65533;SDS011;53640;55.838;37.184;2023-11-19T06:35:26;32.75;;;14.23;;
65533;SDS011;53640;55.838;37.184;2023-11-19T06:37:52;29.15;;;11.77;;
65533;SDS011;53640;55.838;37.184;2023-11-19T06:40:19;28.70;;;12.80;;
65533;SDS011;53640;55.838;37.184;2023-11-19T06:42:47;29.85;;;13.50;;
65533;SDS011;53640;55.838;37.184;2023-11-19T06:45:14;32.38;;;14.77;;
65533;SDS011;53640;55.838;37.184;2023-11-19T06:47:40;27.02;;;13.75;;
65533;SDS011;53640;55.838;37.184;2023-11-19T06:50:07;26.30;;;12.85;;
65533;SDS011;53640;55.838;37.184;2023-11-19T06:52:33;26.52;;;13.38;;
65533;SDS011;53640;55.838;37.184;2023-11-19T06:55:00;34.03;;;14.95;;
65533;SDS011;53640;55.838;37.184;2023-11-19T06:57:29;29.30;;;13.98;;
65533;SDS011;53640;55.838;37.184;2023-11-19T06:59:58;31.75;;;13.90;;
65533;SDS011;53640;55.838;37.184;2023-11-19T07:02:24;24.15;;;12.90;;
65533;SDS011;53640;55.838;37.184;2023-11-19T07:04:51;25.52;;;12.13;;
65533;SDS011;53640;55.838;37.184;2023-11-19T07:07:19;28.35;;;10.98;;
65533;SDS011;53640;55.838;37.184;2023-11-19T07:09:45;18.92;;;10.55;;
65533;SDS011;53640;55.838;37.184;2023-11-19T07:12:12;28.67;;;12.65;;
65533;SDS011;53640;55.838;37.184;2023-11-19T07:14:39;32.08;;;13.45;;
65533;SDS011;53640;55.838;37.184;2023-11-19T07:17:07;24.92;;;13.63;;
65533;SDS011;53640;55.838;37.184;2023-11-19T07:19:38;34.95;;;15.43;;
65533;SDS011;53640;55.838;37.184;2023-11-19T07:22:05;29.17;;;14.02;;
65533;SDS011;53640;55.838;37.184;2023-11-19T07:24:33;33.40;;;14.77;;
65533;SDS011;53640;55.838;37.184;2023-11-19T07:26:59;30.67;;;14.68;;
65533;SDS011;53640;55.838;37.184;2023-11-19T07:29:26;33.90;;;15.77;;
65533;SDS011;53640;55.838;37.184;2023-11-19T07:31:53;32.53;;;15.00;;
65533;SDS011;53640;55.838;37.184;2023-11-19T07:34:19;37.70;;;16.13;;
65533;SDS011;53640;55.838;37.184;2023-11-19T07:36:47;31.77;;;15.23;;
65533;SDS011;53640;55.838;37.184;2023-11-19T07:39:13;35.97;;;15.95;;
65533;SDS011;53640;55.838;37.184;2023-11-19T07:41:41;31.70;;;14.63;;
65533;SDS011;53640;55.838;37.184;2023-11-19T07:44:10;35.15;;;14.15;;
65533;SDS011;53640;55.838;37.184;2023-11-19T07:46:37;30.70;;;14.80;;
65533;SDS011;53640;55.838;37.184;2023-11-19T07:49:11;24.27;;;13.07;;
65533;SDS011;53640;55.838;37.184;2023-11-19T07:51:39;31.45;;;15.20;;
65533;SDS011;53640;55.838;37.184;2023-11-19T07:54:07;27.10;;;14.45;;
65533;SDS011;53640;55.838;37.184;2023-11-19T07:56:33;37.58;;;15.77;;
65533;SDS011;53640;55.838;37.184;2023-11-19T07:59:02;28.92;;;14.32;;
65533;SDS011;53640;55.838;37.184;2023-11-19T08:01:29;29.60;;;14.35;;
65533;SDS011;53640;55.838;37.184;2023-11-19T08:03:56;28.88;;;14.13;;
65533;SDS011;53640;55.838;37.184;2023-11-19T08:06:23;26.90;;;13.57;;
65533;SDS011;53640;55.838;37.184;2023-11-19T08:08:49;22.08;;;12.23;;
65533;SDS011;53640;55.838;37.184;2023-11-19T08:11:16;24.27;;;11.60;;
65533;SDS011;53640;55.838;37.184;2023-11-19T08:13:45;38.88;;;16.40;;
65533;SDS011;53640;55.838;37.184;2023-11-19T08:16:12;23.08;;;11.65;;
65533;SDS011;53640;55.838;37.184;2023-11-19T08:18:38;29.15;;;10.65;;
65533;SDS011;53640;55.838;37.184;2023-11-19T08:21:08;36.42;;;18.20;;
65533;SDS011;53640;55.838;37.184;2023-11-19T08:23:35;39.13;;;15.82;;
65533;SDS011;53640;55.838;37.184;2023-11-19T08:26:02;29.92;;;14.73;;
65533;SDS011;53640;55.838;37.184;2023-11-19T08:28:28;26.73;;;12.65;;
65533;SDS011;53640;55.838;37.184;2023-11-19T08:30:55;25.27;;;13.02;;
65533;SDS011;53640;55.838;37.184;2023-11-19T08:33:21;31.00;;;12.35;;
65533;SDS011;53640;55.838;37.184;2023-11-19T08:35:48;27.52;;;12.13;;
65533;SDS011;53640;55.838;37.184;2023-11-19T08:38:15;24.67;;;11.27;;
65533;SDS011;53640;55.838;37.184;2023-11-19T08:40:43;26.35;;;12.57;;
65533;SDS011;53640;55.838;37.184;2023-11-19T08:43:12;29.35;;;12.18;;
65533;SDS011;53640;55.838;37.184;2023-11-19T08:45:38;20.27;;;10.45;;
65533;SDS011;53640;55.838;37.184;2023-11-19T08:48:06;23.70;;;11.23;;
65533;SDS011;53640;55.838;37.184;2023-11-19T08:50:34;28.20;;;13.23;;
65533;SDS011;53640;55.838;37.184;2023-11-19T08:53:00;22.13;;;11.00;;
65533;SDS011;53640;55.838;37.184;2023-11-19T08:55:28;22.45;;;10.70;;
65533;SDS011;53640;55.838;37.184;2023-11-19T08:57:54;23.83;;;11.82;;
65533;SDS011;53640;55.838;37.184;2023-11-19T09:00:22;26.52;;;11.73;;
65533;SDS011;53640;55.838;37.184;2023-11-19T09:02:49;24.98;;;12.05;;
65533;SDS011;53640;55.838;37.184;2023-11-19T09:05:15;18.98;;;10.02;;
65533;SDS011;53640;55.838;37.184;2023-11-19T09:07:41;24.40;;;10.15;;
65533;SDS011;53640;55.838;37.184;2023-11-19T09:10:10;17.75;;;8.82;;
65533;SDS011;53640;55.838;37.184;2023-11-19T09:12:37;28.63;;;11.90;;
65533;SDS011;53640;55.838;37.184;2023-11-19T09:15:04;27.08;;;12.35;;
65533;SDS011;53640;55.838;37.184;2023-11-19T09:17:31;22.02;;;10.38;;
65533;SDS011;53640;55.838;37.184;2023-11-19T09:19:58;20.58;;;9.95;;
65533;SDS011;53640;55.838;37.184;2023-11-19T09:22:25;20.08;;;9.98;;
65533;SDS011;53640;55.838;37.184;2023-11-19T09:24:51;17.77;;;9.63;;
65533;SDS011;53640;55.838;37.184;2023-11-19T09:27:18;19.98;;;9.68;;
65533;SDS011;53640;55.838;37.184;2023-11-19T09:29:44;20.02;;;9.65;;
65533;SDS011;53640;55.838;37.184;2023-11-19T09:32:12;27.20;;;10.60;;
65533;SDS011;53640;55.838;37.184;2023-11-19T09:34:39;23.80;;;11.85;;
65533;SDS011;53640;55.838;37.184;2023-11-19T09:37:06;21.20;;;9.85;;
65533;SDS011;53640;55.838;37.184;2023-11-19T09:39:33;17.90;;;8.77;;
65533;SDS011;53640;55.838;37.184;2023-11-19T09:42:00;17.23;;;9.43;;
65533;SDS011;53640;55.838;37.184;2023-11-19T09:44:27;17.60;;;10.10;;
65533;SDS011;53640;55.838;37.184;2023-11-19T09:46:55;27.50;;;10.75;;
65533;SDS011;53640;55.838;37.184;2023-11-19T09:49:24;25.27;;;11.05;;
65533;SDS011;53640;55.838;37.184;2023-11-19T09:51:53;24.90;;;11.27;;
65533;SDS011;53640;55.838;37.184;2023-11-19T09:54:20;23.23;;;10.98;;
65533;SDS011;53640;55.838;37.184;2023-11-19T09:56:47;16.13;;;9.25;;
65533;SDS011;53640;55.838;37.184;2023-11-19T09:59:16;15.50;;;8.27;;
65533;SDS011;53640;55.838;37.184;2023-11-19T10:04:15;19.20;;;9.20;;
65533;SDS011;53640;55.838;37.184;2023-11-19T10:06:44;23.30;;;9.95;;
65533;SDS011;53640;55.838;37.184;2023-11-19T10:09:11;22.60;;;9.82;;
65533;SDS011;53640;55.838;37.184;2023-11-19T10:11:41;17.52;;;9.10;;
65533;SDS011;53640;55.838;37.184;2023-11-19T10:14:08;18.98;;;10.00;;
65533;SDS011;53640;55.838;37.184;2023-11-19T10:16:37;20.10;;;9.27;;
65533;SDS011;53640;55.838;37.184;2023-11-19T10:19:04;21.23;;;10.60;;
65533;SDS011;53640;55.838;37.184;2023-11-19T10:21:34;16.92;;;8.32;;
65533;SDS011;53640;55.838;37.184;2023-11-19T10:24:05;16.30;;;8.15;;
65533;SDS011;53640;55.838;37.184;2023-11-19T10:26:32;18.17;;;8.77;;
65533;SDS011;53640;55.838;37.184;2023-11-19T10:29:00;18.80;;;8.85;;
65533;SDS011;53640;55.838;37.184;2023-11-19T10:31:28;18.38;;;8.82;;
65533;SDS011;53640;55.838;37.184;2023-11-19T10:33:54;16.77;;;8.10;;
65533;SDS011;53640;55.838;37.184;2023-11-19T10:36:22;13.32;;;7.20;;
65533;SDS011;53640;55.838;37.184;2023-11-19T10:38:52;13.10;;;6.22;;
65533;SDS011;53640;55.838;37.184;2023-11-19T10:41:30;14.63;;;6.95;;
65533;SDS011;53640;55.838;37.184;2023-11-19T10:43:58;15.00;;;7.20;;
65533;SDS011;53640;55.838;37.184;2023-11-19T10:46:41;15.02;;;7.00;;
65533;SDS011;53640;55.838;37.184;2023-11-19T10:49:13;13.80;;;7.00;;
65533;SDS011;53640;55.838;37.184;2023-11-19T10:51:46;19.55;;;7.35;;
65533;SDS011;53640;55.838;37.184;2023-11-19T10:54:22;16.02;;;7.55;;
65533;SDS011;53640;55.838;37.184;2023-11-19T10:56:51;12.30;;;6.68;;
65533;SDS011;53640;55.838;37.184;2023-11-19T10:59:25;12.25;;;6.57;;
65533;SDS011;53640;55.838;37.184;2023-11-19T11:01:56;18.73;;;7.25;;
65533;SDS011;53640;55.838;37.184;2023-11-19T11:04:23;14.23;;;7.65;;
65533;SDS011;53640;55.838;37.184;2023-11-19T11:06:55;14.50;;;7.50;;
65533;SDS011;53640;55.838;37.184;2023-11-19T11:09:26;12.90;;;7.00;;
65533;SDS011;53640;55.838;37.184;2023-11-19T11:11:54;17.27;;;8.52;;
65533;SDS011;53640;55.838;37.184;2023-11-19T11:14:23;15.48;;;7.95;;
65533;SDS011;53640;55.838;37.184;2023-11-19T11:16:51;12.45;;;7.68;;
65533;SDS011;53640;55.838;37.184;2023-11-19T11:19:19;15.88;;;7.57;;
65533;SDS011;53640;55.838;37.184;2023-11-19T11:21:47;17.63;;;8.00;;
65533;SDS011;53640;55.838;37.184;2023-11-19T11:34:53;17.70;;;8.18;;
65533;SDS011;53640;55.838;37.184;2023-11-19T11:37:45;17.52;;;8.93;;
65533;SDS011;53640;55.838;37.184;2023-11-19T11:40:21;16.75;;;9.05;;
65533;SDS011;53640;55.838;37.184;2023-11-19T11:42:50;19.95;;;9.68;;
65533;SDS011;53640;55.838;37.184;2023-11-19T11:45:18;16.63;;;7.72;;
65533;SDS011;53640;55.838;37.184;2023-11-19T11:48:32;17.17;;;9.52;;
65533;SDS011;53640;55.838;37.184;2023-11-19T11:50:56;15.15;;;7.53;;
65533;SDS011;53640;55.838;37.184;2023-11-19T11:53:25;14.52;;;7.75;;
65533;SDS011;53640;55.838;37.184;2023-11-19T11:55:53;18.20;;;8.10;;
65533;SDS011;53640;55.838;37.184;2023-11-19T11:58:25;14.65;;;7.55;;
65533;SDS011;53640;55.838;37.184;2023-11-19T12:00:58;18.38;;;7.85;;
65533;SDS011;53640;55.838;37.184;2023-11-19T12:03:27;15.18;;;7.40;;
65533;SDS011;53640;55.838;37.184;2023-11-19T12:05:56;16.25;;;8.18;;
65533;SDS011;53640;55.838;37.184;2023-11-19T12:08:24;16.27;;;7.40;;
65533;SDS011;53640;55.838;37.184;2023-11-19T12:10:54;16.70;;;6.75;;
65533;SDS011;53640;55.838;37.184;2023-11-19T12:13:29;15.35;;;7.38;;
65533;SDS011;53640;55.838;37.184;2023-11-19T12:16:14;18.20;;;7.18;;
65533;SDS011;53640;55.838;37.184;2023-11-19T12:18:41;18.00;;;7.60;;
65533;SDS011;53640;55.838;37.184;2023-11-19T12:21:08;16.73;;;8.40;;
65533;SDS011;53640;55.838;37.184;2023-11-19T12:23:45;18.27;;;8.82;;
65533;SDS011;53640;55.838;37.184;2023-11-19T12:26:36;14.32;;;7.82;;
65533;SDS011;53640;55.838;37.184;2023-11-19T12:29:06;14.57;;;7.75;;
65533;SDS011;53640;55.838;37.184;2023-11-19T12:31:34;11.20;;;6.03;;
65533;SDS011;53640;55.838;37.184;2023-11-19T12:34:05;11.23;;;5.82;;
65533;SDS011;53640;55.838;37.184;2023-11-19T12:36:32;15.15;;;5.72;;
65533;SDS011;53640;55.838;37.184;2023-11-19T12:39:00;10.95;;;6.47;;
65533;SDS011;53640;55.838;37.184;2023-11-19T12:41:27;11.35;;;6.68;;
65533;SDS011;53640;55.838;37.184;2023-11-19T12:44:08;15.50;;;7.18;;
65533;SDS011;53640;55.838;37.184;2023-11-19T12:46:37;10.80;;;5.20;;
65533;SDS011;53640;55.838;37.184;2023-11-19T12:49:04;11.13;;;6.03;;
65533;SDS011;53640;55.838;37.184;2023-11-19T12:51:31;14.20;;;6.20;;
65533;SDS011;53640;55.838;37.184;2023-11-19T12:54:05;8.68;;;5.07;;
65533;SDS011;53640;55.838;37.184;2023-11-19T12:56:37;14.82;;;6.75;;
65533;SDS011;53640;55.838;37.184;2023-11-19T12:59:12;12.32;;;6.20;;
65533;SDS011;53640;55.838;37.184;2023-11-19T13:01:40;10.57;;;6.70;;
65533;SDS011;53640;55.838;37.184;2023-11-19T13:04:16;10.60;;;5.65;;
65533;SDS011;53640;55.838;37.184;2023-11-19T13:06:46;11.60;;;6.45;;
65533;SDS011;53640;55.838;37.184;2023-11-19T13:09:49;10.05;;;5.82;;
65533;SDS011;53640;55.838;37.184;2023-11-19T13:12:12;15.63;;;7.10;;
65533;SDS011;53640;55.838;37.184;2023-11-19T13:14:40;10.77;;;5.80;;
65533;SDS011;53640;55.838;37.184;2023-11-19T13:17:08;10.52;;;6.28;;
65533;SDS011;53640;55.838;37.184;2023-11-19T13:19:34;11.70;;;6.32;;
65533;SDS011;53640;55.838;37.184;2023-11-19T13:22:01;12.02;;;5.70;;
65533;SDS011;53640;55.838;37.184;2023-11-19T13:24:27;14.57;;;7.13;;
65533;SDS011;53640;55.838;37.184;2023-11-19T13:26:55;13.15;;;7.47;;
65533;SDS011;53640;55.838;37.184;2023-11-19T13:29:21;13.93;;;8.38;;
65533;SDS011;53640;55.838;37.184;2023-11-19T13:31:48;22.27;;;8.95;;
65533;SDS011;53640;55.838;37.184;2023-11-19T13:34:15;15.40;;;8.23;;
65533;SDS011;53640;55.838;37.184;2023-11-19T13:36:42;10.93;;;6.53;;
65533;SDS011;53640;55.838;37.184;2023-11-19T13:39:11;20.55;;;8.93;;
65533;SDS011;53640;55.838;37.184;2023-11-19T13:41:38;16.35;;;7.25;;
65533;SDS011;53640;55.838;37.184;2023-11-19T13:44:09;22.35;;;7.43;;
65533;SDS011;53640;55.838;37.184;2023-11-19T13:46:35;14.25;;;6.55;;
65533;SDS011;53640;55.838;37.184;2023-11-19T13:49:06;11.63;;;6.65;;
65533;SDS011;53640;55.838;37.184;2023-11-19T13:51:33;14.50;;;7.78;;
65533;SDS011;53640;55.838;37.184;2023-11-19T13:54:01;15.77;;;7.75;;
65533;SDS011;53640;55.838;37.184;2023-11-19T13:56:27;17.08;;;8.10;;
65533;SDS011;53640;55.838;37.184;2023-11-19T13:58:55;15.73;;;7.60;;
65533;SDS011;53640;55.838;37.184;2023-11-19T14:01:23;16.13;;;7.22;;
65533;SDS011;53640;55.838;37.184;2023-11-19T14:03:52;14.73;;;8.13;;
65533;SDS011;53640;55.838;37.184;2023-11-19T14:06:20;17.85;;;8.05;;
65533;SDS011;53640;55.838;37.184;2023-11-19T14:08:47;19.05;;;7.40;;
65533;SDS011;53640;55.838;37.184;2023-11-19T14:11:14;19.67;;;9.00;;
65533;SDS011;53640;55.838;37.184;2023-11-19T14:13:42;16.27;;;8.32;;
65533;SDS011;53640;55.838;37.184;2023-11-19T14:16:08;13.68;;;7.55;;
65533;SDS011;53640;55.838;37.184;2023-11-19T14:18:35;17.23;;;8.38;;
65533;SDS011;53640;55.838;37.184;2023-11-19T14:21:02;13.30;;;7.38;;
65533;SDS011;53640;55.838;37.184;2023-11-19T14:23:30;14.50;;;6.75;;
65533;SDS011;53640;55.838;37.184;2023-11-19T14:25:57;16.75;;;7.38;;
65533;SDS011;53640;55.838;37.184;2023-11-19T14:28:25;15.30;;;7.07;;
65533;SDS011;53640;55.838;37.184;2023-11-19T14:30:52;15.70;;;7.78;;
65533;SDS011;53640;55.838;37.184;2023-11-19T14:33:22;14.93;;;6.63;;
65533;SDS011;53640;55.838;37.184;2023-11-19T14:35:49;17.77;;;7.78;;